createdAt,value
2019-04-05T00:02:42.341Z,9.27
2019-04-05T00:06:50.772Z,8.60
2019-04-05T00:10:59.305Z,9.43
2019-04-05T00:15:15.014Z,8.47
2019-04-05T00:19:18.598Z,9.40
2019-04-05T00:23:27.070Z,9.80
2019-04-05T00:27:35.545Z,9.80
2019-04-05T00:31:44.016Z,12.83
2019-04-05T00:35:52.475Z,8.03
2019-04-05T00:40:00.927Z,9.70
2019-04-05T00:44:09.409Z,9.43
2019-04-05T00:48:17.871Z,9.20
2019-04-05T00:52:26.342Z,9.87
2019-04-05T00:56:34.812Z,9.40
2019-04-05T01:00:43.278Z,9.27
2019-04-05T01:04:51.749Z,10.80
2019-04-05T01:09:00.206Z,11.10
2019-04-05T01:13:08.701Z,13.07
2019-04-05T01:17:24.852Z,12.03
2019-04-05T01:21:30.771Z,11.20
2019-04-05T01:25:40.274Z,12.80
2019-04-05T01:29:49.076Z,11.10
2019-04-05T01:33:57.519Z,12.80
2019-04-05T01:38:06.004Z,13.47
2019-04-05T01:42:14.439Z,12.20
2019-04-05T01:46:22.929Z,10.10
2019-04-05T01:50:31.440Z,9.73
2019-04-05T01:54:39.944Z,9.83
2019-04-05T01:58:48.376Z,14.47
2019-04-05T02:02:56.972Z,15.07
2019-04-05T02:07:05.438Z,12.50
2019-04-05T02:11:14.051Z,12.23
2019-04-05T02:15:28.421Z,15.13
2019-04-05T02:19:36.854Z,14.83
2019-04-05T02:23:45.332Z,12.17
2019-04-05T02:27:53.799Z,11.83
2019-04-05T02:32:02.353Z,11.33
2019-04-05T02:36:10.784Z,17.10
2019-04-05T02:40:19.389Z,13.00
2019-04-05T02:44:28.985Z,12.73
2019-04-05T02:48:39.868Z,15.70
2019-04-05T02:52:51.764Z,12.30
2019-04-05T02:57:01.347Z,14.07
2019-04-05T03:01:10.211Z,16.07
2019-04-05T03:05:20.688Z,15.63
2019-04-05T03:09:29.603Z,15.23
2019-04-05T03:13:46.839Z,14.53
2019-04-05T03:17:55.281Z,15.90
2019-04-05T03:22:06.777Z,15.00
2019-04-05T03:26:18.439Z,18.20
2019-04-05T03:30:27.026Z,15.00
2019-04-05T03:34:36.331Z,16.80
2019-04-05T03:38:46.092Z,15.30
2019-04-05T03:42:54.610Z,14.60
2019-04-05T03:47:03.317Z,16.47
2019-04-05T03:51:12.137Z,14.97
2019-04-05T03:55:20.761Z,16.60
2019-04-05T03:59:29.282Z,14.77
2019-04-05T04:03:37.854Z,16.00
2019-04-05T04:07:46.360Z,15.63
2019-04-05T04:11:55.072Z,18.20
2019-04-05T04:16:03.681Z,17.60
2019-04-05T04:20:30.245Z,17.23
2019-04-05T04:24:39.037Z,19.43
2019-04-05T04:28:47.760Z,20.80
2019-04-05T04:32:56.639Z,21.93
2019-04-05T04:37:05.190Z,19.33
2019-04-05T04:41:13.651Z,15.40
2019-04-05T04:45:23.270Z,21.47
2019-04-05T04:49:32.266Z,17.53
2019-04-05T04:53:41.120Z,22.23
2019-04-05T04:57:49.663Z,22.03
2019-04-05T05:01:58.150Z,15.20
2019-04-05T05:06:06.962Z,22.83
2019-04-05T05:10:15.511Z,17.47
2019-04-05T05:14:24.247Z,20.50
2019-04-05T05:18:32.779Z,17.63
2019-04-05T05:22:41.593Z,19.93
2019-04-05T05:26:50.578Z,16.60
2019-04-05T05:30:59.291Z,21.30
2019-04-05T05:35:09.486Z,19.23
2019-04-05T05:39:17.947Z,19.53
2019-04-05T05:43:26.404Z,16.63
2019-04-05T05:47:35.555Z,21.33
2019-04-05T05:51:45.131Z,19.30
2019-04-05T05:55:53.867Z,17.10
2019-04-05T06:00:02.352Z,18.13
2019-04-05T06:04:12.758Z,18.60
2019-04-05T06:08:21.020Z,20.00
2019-04-05T06:12:29.554Z,21.70
2019-04-05T06:16:46.401Z,28.73
2019-04-05T06:20:48.475Z,17.03
2019-04-05T06:24:57.333Z,19.00
2019-04-05T06:29:05.819Z,22.50
2019-04-05T06:33:14.295Z,19.03
2019-04-05T06:37:22.816Z,20.90
2019-04-05T06:41:31.258Z,18.07
2019-04-05T06:45:39.729Z,21.07
2019-04-05T06:49:48.599Z,17.80
2019-04-05T06:53:57.078Z,22.33
2019-04-05T06:58:05.963Z,20.43
2019-04-05T07:02:14.427Z,20.20
2019-04-05T07:06:22.871Z,17.83
2019-04-05T07:10:31.334Z,19.37
2019-04-05T07:14:39.829Z,24.30
2019-04-05T07:18:48.308Z,20.40
2019-04-05T07:22:56.790Z,25.13
2019-04-05T07:27:05.606Z,23.47
2019-04-05T07:31:14.376Z,24.00
2019-04-05T07:35:42.191Z,25.73
2019-04-05T07:39:50.685Z,23.17
2019-04-05T07:43:59.165Z,25.93
2019-04-05T07:48:07.648Z,23.30
2019-04-05T07:52:16.119Z,20.37
2019-04-05T07:56:24.866Z,19.33
2019-04-05T08:00:51.404Z,17.50
2019-04-05T08:04:59.870Z,17.73
2019-04-05T08:09:11.305Z,12.10
2019-04-05T08:13:21.095Z,17.43
2019-04-05T08:17:29.614Z,15.30
2019-04-05T08:21:38.109Z,17.60
2019-04-05T08:25:46.588Z,22.63
2019-04-05T08:29:55.380Z,20.20
2019-04-05T08:34:03.923Z,18.67
2019-04-05T08:38:12.457Z,22.67
2019-04-05T08:42:20.977Z,21.03
2019-04-05T08:46:29.488Z,20.03
2019-04-05T08:50:38.403Z,18.83
2019-04-05T08:54:46.876Z,18.60
2019-04-05T08:58:55.636Z,22.73
2019-04-05T09:03:04.358Z,18.50
2019-04-05T09:07:12.881Z,17.33
2019-04-05T09:11:21.364Z,20.72
2019-04-05T09:15:29.821Z,28.93
2019-04-05T09:19:38.545Z,22.50
2019-04-05T09:23:47.051Z,24.50
2019-04-05T09:27:55.503Z,20.13
2019-04-05T09:32:04.366Z,22.70
2019-04-05T09:36:12.839Z,19.97
2019-04-05T09:40:21.378Z,18.37
2019-04-05T09:44:29.851Z,19.40
2019-04-05T09:48:38.587Z,20.33
2019-04-05T09:52:47.120Z,18.50
2019-04-05T09:56:56.923Z,17.10
2019-04-05T10:01:05.554Z,18.00
2019-04-05T10:05:14.366Z,14.40
2019-04-05T10:09:22.831Z,13.77
2019-04-05T10:13:31.307Z,15.47
2019-04-05T10:17:39.766Z,16.30
2019-04-05T10:21:48.532Z,15.30
2019-04-05T10:25:56.997Z,14.60
2019-04-05T10:30:11.140Z,19.13
2019-04-05T10:34:19.634Z,15.27
2019-04-05T10:38:28.371Z,16.50
2019-04-05T10:42:37.956Z,16.50
2019-04-05T10:46:46.472Z,19.47
2019-04-05T10:50:54.936Z,16.37
2019-04-05T10:55:03.896Z,18.70
2019-04-05T10:59:12.378Z,20.03
2019-04-05T11:03:20.874Z,23.17
2019-04-05T11:07:29.327Z,26.23
2019-04-05T11:11:37.795Z,22.40
2019-04-05T11:15:46.288Z,22.13
2019-04-05T11:19:54.863Z,21.50
2019-04-05T11:24:03.355Z,23.60
2019-04-05T11:28:12.128Z,21.83
2019-04-05T11:32:20.847Z,20.87
2019-04-05T11:36:29.315Z,22.47
2019-04-05T11:40:38.871Z,21.30
2019-04-05T11:44:53.503Z,23.63
2019-04-05T11:49:03.619Z,19.53
2019-04-05T11:53:12.655Z,19.27
2019-04-05T11:57:21.388Z,24.13
2019-04-05T12:01:31.472Z,25.20
2019-04-05T12:05:39.936Z,23.93
2019-04-05T12:09:48.641Z,28.20
2019-04-05T12:13:57.248Z,22.17
2019-04-05T12:18:06.012Z,21.80
2019-04-05T12:22:14.566Z,26.90
2019-04-05T12:26:23.027Z,23.73
2019-04-05T12:30:31.528Z,26.67
2019-04-05T12:34:40.011Z,30.03
2019-04-05T12:38:48.508Z,28.30
2019-04-05T12:42:57.248Z,24.50
2019-04-05T12:47:05.986Z,28.90
2019-04-05T12:51:15.588Z,29.80
2019-04-05T12:55:25.083Z,26.87
2019-04-05T12:59:33.574Z,31.83
2019-04-05T13:03:42.060Z,30.80
2019-04-05T13:07:50.670Z,28.67
2019-04-05T13:12:00.982Z,32.00
2019-04-05T13:16:10.828Z,28.80
2019-04-05T13:20:19.651Z,32.37
2019-04-05T13:24:28.114Z,30.63
2019-04-05T13:28:36.630Z,28.57
2019-04-05T13:32:45.400Z,30.77
2019-04-05T13:36:53.855Z,39.23
2019-04-05T13:41:02.345Z,31.97
2019-04-05T13:45:11.045Z,29.53
2019-04-05T13:49:19.627Z,28.30
2019-04-05T13:53:28.114Z,25.83
2019-04-05T13:57:38.462Z,23.10
2019-04-05T14:01:50.744Z,25.77
2019-04-05T14:05:57.237Z,30.60
2019-04-05T14:10:10.625Z,28.27
2019-04-05T14:14:18.460Z,35.13
2019-04-05T14:18:26.968Z,28.50
2019-04-05T14:22:35.432Z,27.07
2019-04-05T14:26:43.914Z,26.83
2019-04-05T14:30:52.361Z,25.05
2019-04-05T14:35:00.832Z,21.37
2019-04-05T14:39:10.134Z,22.03
2019-04-05T14:43:21.248Z,21.80
2019-04-05T14:47:29.094Z,24.60
2019-04-05T14:51:37.587Z,21.00
2019-04-05T14:55:46.340Z,22.57
2019-04-05T14:59:54.796Z,23.37
2019-04-05T15:04:03.341Z,23.57
2019-04-05T15:08:11.833Z,25.80
2019-04-05T15:12:20.607Z,25.20
2019-04-05T15:16:29.098Z,20.40
2019-04-05T15:20:37.594Z,18.57
2019-04-05T15:24:47.097Z,26.10
2019-04-05T15:28:56.101Z,23.67
2019-04-05T15:33:04.693Z,26.87
2019-04-05T15:37:15.835Z,23.17
2019-04-05T15:41:23.383Z,24.17
2019-04-05T15:45:31.851Z,20.73
2019-04-05T15:49:40.339Z,21.33
2019-04-05T15:53:49.192Z,23.97
2019-04-05T15:57:58.032Z,20.57
2019-04-05T16:02:06.571Z,23.40
2019-04-05T16:06:15.047Z,19.90
2019-04-05T16:10:23.534Z,18.27
2019-04-05T16:14:32.239Z,23.10
2019-04-05T16:18:40.718Z,20.23
2019-04-05T16:22:49.260Z,25.90
2019-04-05T16:26:57.766Z,18.63
2019-04-05T16:31:06.312Z,19.37
2019-04-05T16:35:14.960Z,23.27
2019-04-05T16:39:23.473Z,23.60
2019-04-05T16:43:32.489Z,18.27
2019-04-05T16:47:41.009Z,23.33
2019-04-05T16:51:49.458Z,21.87
2019-04-05T16:55:58.234Z,24.80
2019-04-05T17:00:15.198Z,22.27
2019-04-05T17:04:23.789Z,22.20
2019-04-05T17:08:32.296Z,24.30
2019-04-05T17:12:40.836Z,22.63
2019-04-05T17:16:49.309Z,23.33
2019-04-05T17:20:57.784Z,22.33
2019-04-05T17:25:07.135Z,22.10
2019-04-05T17:29:15.589Z,25.80
2019-04-05T17:33:24.423Z,30.03
2019-04-05T17:37:33.190Z,27.33
2019-04-05T17:41:41.936Z,32.43
2019-04-05T17:45:50.395Z,22.30
2019-04-05T17:49:59.123Z,25.50
2019-04-05T17:54:07.595Z,24.83
2019-04-05T17:58:17.885Z,33.17
2019-04-05T18:02:27.288Z,36.13
2019-04-05T18:06:35.782Z,39.80
2019-04-05T18:10:44.326Z,41.27
2019-04-05T18:14:53.132Z,36.37
2019-04-05T18:19:01.583Z,45.10
2019-04-05T18:23:10.067Z,49.70
2019-04-05T18:27:18.538Z,47.13
2019-04-05T18:31:27.452Z,42.03
2019-04-05T18:35:35.902Z,31.50
2019-04-05T18:39:44.695Z,39.30
2019-04-05T18:43:53.553Z,33.60
2019-04-05T18:48:02.291Z,36.33
2019-04-05T18:52:10.766Z,35.87
2019-04-05T18:56:19.303Z,33.90
2019-04-05T19:00:28.059Z,31.17
2019-04-05T19:04:36.539Z,35.60
2019-04-05T19:08:45.021Z,38.93
2019-04-05T19:12:53.592Z,50.60
2019-04-05T19:17:02.152Z,50.23
2019-04-05T19:21:10.845Z,51.77
2019-04-05T19:25:19.319Z,49.57
2019-04-05T19:29:27.791Z,48.63
2019-04-05T19:50:17.360Z,47.67
2019-04-05T19:54:26.538Z,40.78
2019-04-05T19:58:35.067Z,36.93
2019-04-05T20:02:43.538Z,49.00
2019-04-05T20:06:58.323Z,45.23
2019-04-05T20:11:02.187Z,39.87
2019-04-05T20:15:10.725Z,43.80
2019-04-05T20:19:19.226Z,43.40
2019-04-05T20:23:27.704Z,49.23
2019-04-05T20:27:36.170Z,48.60
2019-04-05T20:31:44.650Z,55.40
2019-04-05T20:35:53.099Z,48.50
2019-04-05T20:40:01.584Z,50.60
2019-04-05T20:44:10.035Z,47.70
2019-04-05T20:48:18.837Z,45.20
2019-04-05T20:52:27.320Z,59.10
2019-04-05T20:56:35.783Z,45.50
2019-04-05T21:00:44.238Z,49.40
2019-04-05T21:04:52.698Z,50.63
2019-04-05T21:09:01.451Z,44.03
2019-04-05T21:13:09.916Z,46.77
2019-04-05T21:17:18.627Z,59.00
2019-04-05T21:21:27.352Z,57.77
2019-04-05T21:25:36.264Z,50.40
2019-04-05T21:29:44.983Z,52.13
2019-04-05T21:33:53.731Z,50.53
2019-04-05T21:38:02.207Z,50.13
2019-04-05T21:42:10.741Z,54.70
2019-04-05T21:46:19.213Z,49.70
2019-04-05T21:50:27.690Z,53.73
2019-04-05T21:54:46.808Z,55.07
2019-04-05T21:58:46.626Z,52.43
2019-04-05T22:02:55.148Z,44.63
2019-04-05T22:07:03.609Z,60.23
2019-04-05T22:11:12.095Z,54.50
2019-04-05T22:15:20.582Z,54.33
2019-04-05T22:19:29.031Z,55.20
2019-04-05T22:23:37.497Z,58.77
2019-04-05T22:27:45.970Z,55.27
2019-04-05T22:31:54.427Z,49.33
2019-04-05T22:36:02.896Z,43.40
2019-04-05T22:40:11.488Z,49.00
2019-04-05T22:44:19.973Z,62.05
2019-04-05T22:48:28.443Z,47.03
2019-04-05T22:52:36.957Z,57.57
2019-04-05T22:56:45.709Z,49.00
2019-04-05T23:00:54.175Z,52.83
2019-04-05T23:05:02.639Z,52.60
2019-04-05T23:09:11.112Z,57.73
2019-04-05T23:13:19.585Z,55.27
2019-04-05T23:17:28.097Z,55.93
2019-04-05T23:21:36.590Z,54.70
2019-04-05T23:25:45.066Z,55.20
2019-04-05T23:29:53.818Z,55.60
2019-04-05T23:34:02.302Z,58.83
2019-04-05T23:38:10.738Z,56.73
2019-04-05T23:42:19.224Z,63.73
2019-04-05T23:46:27.690Z,54.00
2019-04-05T23:50:36.194Z,57.87
2019-04-05T23:54:44.695Z,55.77
2019-04-05T23:58:53.166Z,63.63
